createdAt,value
2019-04-25T00:01:11.568Z,100219.60
2019-04-25T00:06:06.804Z,100211.69
2019-04-25T00:11:01.784Z,100197.73
2019-04-25T00:15:55.795Z,100181.45
2019-04-25T00:20:52.217Z,100174.20
2019-04-25T00:26:05.141Z,100178.09
2019-04-25T00:30:59.916Z,100165.52
2019-04-25T00:35:53.872Z,100149.22
2019-04-25T00:40:48.058Z,100134.12
2019-04-25T00:45:43.607Z,100143.01
2019-04-25T00:50:38.051Z,100152.41
2019-04-25T00:55:32.063Z,100144.73
2019-04-25T01:00:37.032Z,100146.19
2019-04-25T01:05:31.604Z,100159.79
2019-04-25T01:10:25.762Z,100165.72
2019-04-25T01:15:21.389Z,100170.94
2019-04-25T01:20:15.848Z,100168.44
2019-04-25T01:25:10.049Z,100178.73
2019-04-25T01:30:06.145Z,100178.67
2019-04-25T01:35:17.218Z,100193.95
2019-04-25T01:40:18.924Z,100196.48
2019-04-25T01:45:14.062Z,100207.31
2019-04-25T01:50:08.281Z,100216.01
2019-04-25T01:55:05.539Z,100214.28
2019-04-25T01:59:59.666Z,100208.14
2019-04-25T02:04:56.684Z,100196.70
2019-04-25T02:09:50.024Z,100200.62
2019-04-25T02:14:44.702Z,100207.38
2019-04-25T02:19:38.788Z,100220.58
2019-04-25T02:24:33.867Z,100228.16
2019-04-25T02:29:28.110Z,100232.02
2019-04-25T02:34:22.093Z,100236.77
2019-04-25T02:39:17.721Z,100234.99
2019-04-25T02:44:14.441Z,100240.08
2019-04-25T02:49:35.426Z,100243.96
2019-04-25T02:54:24.636Z,100252.19
2019-04-25T02:59:18.741Z,100250.30
2019-04-25T03:04:14.445Z,100246.73
2019-04-25T03:09:10.697Z,100245.69
2019-04-25T03:14:06.982Z,100240.66
2019-04-25T03:19:04.795Z,100231.98
2019-04-25T03:23:59.603Z,100234.73
2019-04-25T03:28:54.557Z,100234.18
2019-04-25T03:33:48.660Z,100238.44
2019-04-25T03:38:44.083Z,100237.28
2019-04-25T03:43:38.183Z,100251.98
2019-04-25T03:48:35.168Z,100257.77
2019-04-25T03:53:28.007Z,100247.44
2019-04-25T03:58:21.968Z,100248.88
2019-04-25T04:03:15.925Z,100258.61
2019-04-25T04:08:09.889Z,100257.33
2019-04-25T04:13:05.158Z,100256.50
2019-04-25T04:18:01.660Z,100256.40
2019-04-25T04:23:07.187Z,100260.72
2019-04-25T04:28:01.189Z,100250.55
2019-04-25T04:32:55.159Z,100238.55
2019-04-25T04:37:49.230Z,100252.91
2019-04-25T04:42:43.543Z,100261.31
2019-04-25T04:47:37.527Z,100258.05
2019-04-25T04:52:31.589Z,100273.52
2019-04-25T04:57:31.922Z,100271.09
2019-04-25T05:02:35.464Z,100263.58
2019-04-25T05:07:46.426Z,100266.81
2019-04-25T05:12:40.407Z,100277.72
2019-04-25T05:17:34.383Z,100279.48
2019-04-25T05:22:28.392Z,100272.01
2019-04-25T05:27:37.173Z,100254.08
2019-04-25T05:32:19.217Z,100264.46
2019-04-25T05:37:14.399Z,100247.59
2019-04-25T05:42:29.044Z,100256.56
2019-04-25T05:47:25.760Z,100257.72
2019-04-25T05:52:19.838Z,100264.33
2019-04-25T05:57:13.965Z,100276.95
2019-04-25T06:02:07.989Z,100283.71
2019-04-25T06:07:02.193Z,100289.44
2019-04-25T06:12:14.836Z,100297.78
2019-04-25T06:17:10.721Z,100299.38
2019-04-25T06:22:06.674Z,100303.96
2019-04-25T06:27:14.907Z,100319.78
2019-04-25T06:32:09.006Z,100322.89
2019-04-25T06:37:04.762Z,100307.59
2019-04-25T06:41:59.242Z,100302.14
2019-04-25T06:46:58.273Z,100309.88
2019-04-25T06:51:54.636Z,100309.98
2019-04-25T06:56:48.907Z,100314.80
2019-04-25T07:01:44.000Z,100314.71
2019-04-25T07:06:38.179Z,100336.84
2019-04-25T07:11:32.960Z,100343.66
2019-04-25T07:16:28.026Z,100355.17
2019-04-25T07:21:24.020Z,100364.27
2019-04-25T07:26:20.143Z,100367.81
2019-04-25T07:31:31.321Z,100370.81
2019-04-25T07:36:25.755Z,100377.52
2019-04-25T07:41:20.064Z,100370.50
2019-04-25T07:46:13.996Z,100363.52
2019-04-25T07:51:08.215Z,100361.75
2019-04-25T07:56:04.253Z,100352.95
2019-04-25T08:00:58.495Z,100366.51
2019-04-25T08:05:53.392Z,100368.16
2019-04-25T08:11:00.791Z,100361.75
2019-04-25T08:16:03.424Z,100367.92
2019-04-25T08:20:57.928Z,100364.08
2019-04-25T08:25:51.883Z,100367.63
2019-04-25T08:30:45.898Z,100368.48
2019-04-25T08:35:39.862Z,100366.33
2019-04-25T08:40:35.752Z,100367.84
2019-04-25T08:45:30.642Z,100372.48
2019-04-25T08:50:32.983Z,100371.85
2019-04-25T08:55:45.750Z,100376.64
2019-04-25T09:01:01.375Z,100375.55
2019-04-25T09:05:54.973Z,100376.28
2019-04-25T09:10:49.680Z,100378.17
2019-04-25T09:15:45.585Z,100385.23
2019-04-25T09:20:42.062Z,100370.04
2019-04-25T09:25:36.722Z,100364.27
2019-04-25T09:30:31.072Z,100378.55
2019-04-25T09:35:25.052Z,100388.02
2019-04-25T09:40:19.228Z,100374.56
2019-04-25T09:45:30.696Z,100359.73
2019-04-25T09:50:35.554Z,100347.12
2019-04-25T09:55:49.544Z,100349.98
2019-04-25T10:00:46.006Z,100342.41
2019-04-25T10:05:40.408Z,100333.52
2019-04-25T10:10:34.470Z,100341.00
2019-04-25T10:15:47.966Z,100336.05
2019-04-25T10:20:43.469Z,100346.81
2019-04-25T10:25:38.453Z,100344.12
2019-04-25T10:30:34.196Z,100333.41
2019-04-25T10:35:28.659Z,100347.66
2019-04-25T10:40:25.003Z,100340.02
2019-04-25T10:45:23.238Z,100331.81
2019-04-25T10:50:15.278Z,100338.13
2019-04-25T10:55:09.867Z,100317.70
2019-04-25T11:00:20.476Z,100301.70
2019-04-25T11:05:16.467Z,100304.15
2019-04-25T11:10:10.677Z,100315.56
2019-04-25T11:15:05.383Z,100308.97
2019-04-25T11:19:59.417Z,100313.75
2019-04-25T11:24:53.404Z,100313.77
2019-04-25T11:29:47.518Z,100311.29
2019-04-25T11:34:43.143Z,100320.31
2019-04-25T11:39:44.374Z,100303.38
2019-04-25T11:44:38.410Z,100299.30
2019-04-25T11:49:34.026Z,100278.38
2019-04-25T11:54:28.105Z,100271.72
2019-04-25T11:59:23.536Z,100252.23
2019-04-25T12:04:17.536Z,100229.35
2019-04-25T12:09:11.599Z,100241.63
2019-04-25T12:14:05.706Z,100228.44
2019-04-25T12:18:59.696Z,100218.67
2019-04-25T12:23:53.799Z,100204.69
2019-04-25T12:28:47.943Z,100218.25
2019-04-25T12:33:43.374Z,100211.07
2019-04-25T12:38:38.024Z,100216.05
2019-04-25T12:43:33.977Z,100216.91
2019-04-25T12:48:28.053Z,100217.44
2019-04-25T12:53:23.583Z,100206.34
2019-04-25T12:58:17.609Z,100206.68
2019-04-25T13:03:11.652Z,100210.55
2019-04-25T13:08:05.747Z,100221.34
2019-04-25T13:12:59.908Z,100215.79
2019-04-25T13:17:54.002Z,100220.31
2019-04-25T13:22:48.191Z,100219.73
2019-04-25T13:27:53.299Z,100222.66
2019-04-25T13:33:06.508Z,100231.38
2019-04-25T13:38:01.349Z,100232.99
2019-04-25T13:42:56.437Z,100213.94
2019-04-25T13:47:50.545Z,100218.98
2019-04-25T13:52:44.626Z,100211.77
2019-04-25T13:57:38.749Z,100209.53
2019-04-25T14:02:32.823Z,100198.66
2019-04-25T14:07:27.314Z,100197.69
2019-04-25T14:12:21.642Z,100197.41
2019-04-25T14:17:26.306Z,100196.74
2019-04-25T14:22:21.028Z,100199.04
2019-04-25T14:27:15.689Z,100177.31
2019-04-25T14:32:11.664Z,100181.46
2019-04-25T14:37:05.610Z,100179.41
2019-04-25T14:41:59.730Z,100171.73
2019-04-25T14:46:53.775Z,100176.66
2019-04-25T14:51:47.844Z,100182.27
2019-04-25T14:56:43.847Z,100182.71
2019-04-25T15:01:45.039Z,100181.28
2019-04-25T15:06:33.981Z,100188.58
2019-04-25T15:11:29.064Z,100187.33
2019-04-25T15:16:23.578Z,100184.25
2019-04-25T15:21:18.863Z,100183.45
2019-04-25T15:26:13.007Z,100187.53
2019-04-25T15:31:07.089Z,100177.22
2019-04-25T15:36:03.150Z,100173.07
2019-04-25T15:40:59.063Z,100165.25
2019-04-25T15:45:55.051Z,100153.51
2019-04-25T15:50:50.343Z,100173.25
2019-04-25T15:55:45.580Z,100179.48
2019-04-25T16:00:40.087Z,100175.56
2019-04-25T16:05:35.534Z,100179.06
2019-04-25T16:10:29.932Z,100177.19
2019-04-25T16:15:24.060Z,100188.05
2019-04-25T16:20:18.627Z,100190.94
2019-04-25T16:25:12.726Z,100194.30
2019-04-25T16:30:07.574Z,100198.96
2019-04-25T16:35:02.132Z,100198.36
2019-04-25T16:39:56.221Z,100221.94
2019-04-25T16:44:50.318Z,100236.70
2019-04-25T16:49:44.383Z,100221.67
2019-04-25T16:54:38.371Z,100252.84
2019-04-25T16:59:33.563Z,100270.83
2019-04-25T17:04:29.750Z,100279.25
2019-04-25T17:09:23.956Z,100281.73
2019-04-25T17:14:19.857Z,100292.15
2019-04-25T17:19:15.754Z,100300.88
2019-04-25T17:24:09.914Z,100302.97
2019-04-25T17:29:06.030Z,100307.21
2019-04-25T17:34:08.211Z,100333.44
2019-04-25T17:39:18.185Z,100355.00
2019-04-25T17:44:12.394Z,100325.69
2019-04-25T17:49:06.369Z,100319.19
2019-04-25T17:54:00.414Z,100342.13
2019-04-25T17:58:54.379Z,100347.92
2019-04-25T18:03:48.772Z,100333.06
2019-04-25T18:08:42.855Z,100355.78
2019-04-25T18:13:38.805Z,100340.80
2019-04-25T18:18:35.421Z,100360.17
2019-04-25T18:23:48.232Z,100377.47
2019-04-25T18:28:47.058Z,100386.08
2019-04-25T18:33:41.826Z,100398.11
2019-04-25T18:38:47.089Z,100420.20
2019-04-25T18:43:52.303Z,100447.92
2019-04-25T18:48:46.978Z,100428.75
2019-04-25T18:53:45.806Z,100455.06
2019-04-25T18:58:41.910Z,100468.14
2019-04-25T19:03:41.562Z,100482.20
2019-04-25T19:08:35.780Z,100502.84
2019-04-25T19:13:29.858Z,100495.95
2019-04-25T19:18:24.077Z,100524.47
2019-04-25T19:23:18.274Z,100516.96
2019-04-25T19:28:12.267Z,100534.91
2019-04-25T19:33:07.616Z,100526.06
2019-04-25T19:38:02.067Z,100523.39
2019-04-25T19:43:00.871Z,100534.81
2019-04-25T19:47:54.957Z,100532.42
2019-04-25T19:52:49.748Z,100551.19
2019-04-25T19:57:44.244Z,100529.47
2019-04-25T20:02:40.161Z,100534.90
2019-04-25T20:07:46.615Z,100545.98
2019-04-25T20:12:44.002Z,100545.22
2019-04-25T20:17:38.594Z,100548.14
2019-04-25T20:22:32.690Z,100556.42
2019-04-25T20:27:26.764Z,100554.71
2019-04-25T20:32:20.920Z,100554.05
2019-04-25T20:37:15.128Z,100560.12
2019-04-25T20:42:09.275Z,100565.20
2019-04-25T20:47:03.461Z,100560.64
2019-04-25T20:51:57.542Z,100562.65
2019-04-25T20:56:51.755Z,100575.91
2019-04-25T21:01:45.933Z,100580.02
2019-04-25T21:06:40.517Z,100572.28
2019-04-25T21:11:34.565Z,100568.20
2019-04-25T21:16:46.338Z,100564.84
2019-04-25T21:21:40.417Z,100547.91
2019-04-25T21:26:34.640Z,100560.67
2019-04-25T21:31:28.741Z,100563.42
2019-04-25T21:36:22.761Z,100573.58
2019-04-25T21:41:21.697Z,100557.11
2019-04-25T21:46:16.125Z,100550.19
2019-04-25T21:51:28.980Z,100558.20
2019-04-25T21:56:23.146Z,100576.55
2019-04-25T22:01:19.825Z,100589.73
2019-04-25T22:06:13.848Z,100596.27
2019-04-25T22:11:08.546Z,100606.55
2019-04-25T22:16:04.016Z,100614.94
2019-04-25T22:20:58.503Z,100582.92
2019-04-25T22:25:52.478Z,100583.56
2019-04-25T22:30:48.828Z,100601.08
2019-04-25T22:35:47.712Z,100582.11
2019-04-25T22:40:42.287Z,100564.77
2019-04-25T22:45:36.699Z,100565.54
2019-04-25T22:50:30.679Z,100534.54
2019-04-25T22:55:24.803Z,100547.95
2019-04-25T23:00:29.714Z,100542.41
2019-04-25T23:05:28.776Z,100523.77
2019-04-25T23:10:23.189Z,100540.17
2019-04-25T23:15:17.253Z,100498.44
2019-04-25T23:20:11.806Z,100499.94
2019-04-25T23:25:08.334Z,100534.97
2019-04-25T23:30:05.694Z,100540.11
2019-04-25T23:35:00.615Z,100550.64
2019-04-25T23:39:54.688Z,100550.57
2019-04-25T23:44:48.683Z,100555.39
2019-04-25T23:49:42.648Z,100569.91
2019-04-25T23:54:37.064Z,100583.45
2019-04-25T23:59:31.272Z,100580.16
